Weather at Juan Gualberto Gomez International Airport

Public forecast

Using degrees Celsius for public forecast. Weather courtesy of forecast.io.

Current aviation weather report (METAR) for Juan Gualberto Gomez International Airport

Retrieved 2020/10/29 00:50 UTC (37 minutes ago):

MUVR 290050Z 09008KT 8000 FEW025 26/26 Q1014

Aviation forecast (TAF) for Juan Gualberto Gomez International Airport

Retrieved 2020-10-29 00:03 UTC (1 hour ago):

TAF MUVR 282300Z 2900/2924 09010KT 9000 SCT020 BECMG 2903/2905 VRB03KT BECMG 2914/2916 08010KT